Aviation Digital Data Service (ADDS)

Output produced by METARs form (2223 UTC 23 March 2019)
found at http://www.aviationweather.gov/metar/data/
 
METAR text: MMMD 232141Z 04008KT 7SM SCT030 BKN090 31/16 A3002 RMK 8/130
Conditions at: MMMD (MERIDA INTL ARPT, MX) observed 2141 UTC 23 March 2019
Temperature: 31.0°C (88°F)
Dewpoint: 16.0°C (61°F) [RH = 40%]
Pressure (altimeter): 30.02 inches Hg (1016.7 mb)
Winds: from the NE (40 degrees) at 9 MPH (8 knots; 4.1 m/s)
Visibility: 7 miles (11 km)
Ceiling: 9000 feet AGL
Clouds: scattered clouds at 3000 feet AGL
broken clouds at 9000 feet AGL
Weather: no significant weather observed at this time

METAR text: MMMD 232044Z 02009KT 7SM SCT030 BKN090 31/16 A3002 RMK SLP169 56030 967 8/130
Conditions at: MMMD (MERIDA INTL ARPT, MX) observed 2044 UTC 23 March 2019
Temperature: 31.0°C (88°F)
Dewpoint: 16.0°C (61°F) [RH = 40%]
Pressure (altimeter): 30.02 inches Hg (1016.7 mb)
[Sea-level pressure: 1016.9 mb]
Winds: from the NNE (20 degrees) at 10 MPH (9 knots; 4.6 m/s)
Visibility: 7 miles (11 km)
Ceiling: 9000 feet AGL
Clouds: scattered clouds at 3000 feet AGL
broken clouds at 9000 feet AGL
Weather: no significant weather observed at this time

METAR text: MMMD 231947Z 04006KT 7SM BKN025 BKN090 32/13 A3004 RMK 8/130 CI
Conditions at: MMMD (MERIDA INTL ARPT, MX) observed 1947 UTC 23 March 2019
Temperature: 32.0°C (90°F)
Dewpoint: 13.0°C (55°F) [RH = 32%]
Pressure (altimeter): 30.04 inches Hg (1017.4 mb)
Winds: from the NE (40 degrees) at 7 MPH (6 knots; 3.1 m/s)
Visibility: 7 miles (11 km)
Ceiling: 2500 feet AGL
Clouds: broken clouds at 2500 feet AGL
broken clouds at 9000 feet AGL
Weather: no significant weather observed at this time

METAR text: MMMD 231848Z 04004KT 7SM BKN025 BKN090 30/14 A3007 RMK 8/130 CI
Conditions at: MMMD (MERIDA INTL ARPT, MX) observed 1848 UTC 23 March 2019
Temperature: 30.0°C (86°F)
Dewpoint: 14.0°C (57°F) [RH = 38%]
Pressure (altimeter): 30.07 inches Hg (1018.4 mb)
Winds: from the NE (40 degrees) at 5 MPH (4 knots; 2.1 m/s)
Visibility: 7 miles (11 km)
Ceiling: 2500 feet AGL
Clouds: broken clouds at 2500 feet AGL
broken clouds at 9000 feet AGL
Weather: no significant weather observed at this time

METAR text: MMMD 231749Z 05007KT 7SM BKN025 31/15 A3011 RMK SLP200 57007 956 8/100 AC
Conditions at: MMMD (MERIDA INTL ARPT, MX) observed 1749 UTC 23 March 2019
Temperature: 31.0°C (88°F)
Dewpoint: 15.0°C (59°F) [RH = 38%]
Pressure (altimeter): 30.11 inches Hg (1019.7 mb)
[Sea-level pressure: 1020.0 mb]
Winds: from the NE (50 degrees) at 8 MPH (7 knots; 3.6 m/s)
Visibility: 7 miles (11 km)
Ceiling: 2500 feet AGL
Clouds: broken clouds at 2500 feet AGL
Weather: no significant weather observed at this time

METAR text: MMMD 231646Z 15004KT 7SM BKN020 28/15 A3014 RMK 8/100 CI
Conditions at: MMMD (MERIDA INTL ARPT, MX) observed 1646 UTC 23 March 2019
Temperature: 28.0°C (82°F)
Dewpoint: 15.0°C (59°F) [RH = 45%]
Pressure (altimeter): 30.14 inches Hg (1020.7 mb)
Winds: from the SSE (150 degrees) at 5 MPH (4 knots; 2.1 m/s)
Visibility: 7 miles (11 km)
Ceiling: 2000 feet AGL
Clouds: broken clouds at 2000 feet AGL
Weather: no significant weather observed at this time

METAR text: MMMD 231545Z 11007KT 7SM SCT020 28/15 A3014 RMK 8/500 HZY CI
Conditions at: MMMD (MERIDA INTL ARPT, MX) observed 1545 UTC 23 March 2019
Temperature: 28.0°C (82°F)
Dewpoint: 15.0°C (59°F) [RH = 45%]
Pressure (altimeter): 30.14 inches Hg (1020.7 mb)
Winds: from the ESE (110 degrees) at 8 MPH (7 knots; 3.6 m/s)
Visibility: 7 miles (11 km)
Ceiling: at least 12,000 feet AGL
Clouds: scattered clouds at 2000 feet AGL
Weather: no significant weather observed at this time

METAR text: MMMD 231445Z 09011KT 7SM SCT020 25/14 A3014 RMK SLP207 52029 990 8/500 HZY CI
Conditions at: MMMD (MERIDA INTL ARPT, MX) observed 1445 UTC 23 March 2019
Temperature: 25.0°C (77°F)
Dewpoint: 14.0°C (57°F) [RH = 50%]
Pressure (altimeter): 30.14 inches Hg (1020.7 mb)
[Sea-level pressure: 1020.7 mb]
Winds: from the E (90 degrees) at 13 MPH (11 knots; 5.7 m/s)
Visibility: 7 miles (11 km)
Ceiling: at least 12,000 feet AGL
Clouds: scattered clouds at 2000 feet AGL
Weather: no significant weather observed at this time

METAR text: MMMD 231348Z 07007KT 7SM BKN020 BKN300 23/14 A3013 RMK 8/508 HZY AC
Conditions at: MMMD (MERIDA INTL ARPT, MX) observed 1348 UTC 23 March 2019
Temperature: 23.0°C (73°F)
Dewpoint: 14.0°C (57°F) [RH = 57%]
Pressure (altimeter): 30.13 inches Hg (1020.4 mb)
Winds: from the ENE (70 degrees) at 8 MPH (7 knots; 3.6 m/s)
Visibility: 7 miles (11 km)
Ceiling: 2000 feet AGL
Clouds: broken clouds at 2000 feet AGL
broken clouds at 30000 feet AGL
Weather: no significant weather observed at this time

METAR text: MMMD 231248Z 08004KT 7SM SCT020 SCT300 20/13 A3010 RMK 8/508
Conditions at: MMMD (MERIDA INTL ARPT, MX) observed 1248 UTC 23 March 2019
Temperature: 20.0°C (68°F)
Dewpoint: 13.0°C (55°F) [RH = 64%]
Pressure (altimeter): 30.10 inches Hg (1019.4 mb)
Winds: from the E (80 degrees) at 5 MPH (4 knots; 2.1 m/s)
Visibility: 7 miles (11 km)
Ceiling: at least 12,000 feet AGL
Clouds: scattered clouds at 2000 feet AGL
scattered clouds at 30000 feet AGL
Weather: no significant weather observed at this time

METAR text: MMMD 231145Z 07007KT 7SM SKC 19/13 A3007 RMK SLP178 57012 961 SC
Conditions at: MMMD (MERIDA INTL ARPT, MX) observed 1145 UTC 23 March 2019
Temperature: 19.0°C (66°F)
Dewpoint: 13.0°C (55°F) [RH = 68%]
Pressure (altimeter): 30.07 inches Hg (1018.4 mb)
[Sea-level pressure: 1017.8 mb]
Winds: from the ENE (70 degrees) at 8 MPH (7 knots; 3.6 m/s)
Visibility: 7 miles (11 km)
Ceiling: at least 12,000 feet AGL
Clouds: clear skies
Weather: no significant weather observed at this time

METAR text: MMMD 231046Z 08006KT 7SM SKC 20/13 A3005
Conditions at: MMMD (MERIDA INTL ARPT, MX) observed 1046 UTC 23 March 2019
Temperature: 20.0°C (68°F)
Dewpoint: 13.0°C (55°F) [RH = 64%]
Pressure (altimeter): 30.05 inches Hg (1017.7 mb)
Winds: from the E (80 degrees) at 7 MPH (6 knots; 3.1 m/s)
Visibility: 7 miles (11 km)
Ceiling: at least 12,000 feet AGL
Clouds: clear skies
Weather: no significant weather observed at this time

METAR text: MMMD 230946Z 08010KT 7SM FEW020 20/14 A3004 RMK 8/500
Conditions at: MMMD (MERIDA INTL ARPT, MX) observed 0946 UTC 23 March 2019
Temperature: 20.0°C (68°F)
Dewpoint: 14.0°C (57°F) [RH = 68%]
Pressure (altimeter): 30.04 inches Hg (1017.4 mb)
Winds: from the E (80 degrees) at 12 MPH (10 knots; 5.1 m/s)
Visibility: 7 miles (11 km)
Ceiling: at least 12,000 feet AGL
Clouds: few clouds at 2000 feet AGL
Weather: no significant weather observed at this time

METAR text: MMMD 230846Z 08004KT 7SM SKC 20/13 A3005 RMK SLP190 57009 900
Conditions at: MMMD (MERIDA INTL ARPT, MX) observed 0846 UTC 23 March 2019
Temperature: 20.0°C (68°F)
Dewpoint: 13.0°C (55°F) [RH = 64%]
Pressure (altimeter): 30.05 inches Hg (1017.7 mb)
[Sea-level pressure: 1019.0 mb]
Winds: from the E (80 degrees) at 5 MPH (4 knots; 2.1 m/s)
Visibility: 7 miles (11 km)
Ceiling: at least 12,000 feet AGL
Clouds: clear skies
Weather: no significant weather observed at this time

METAR text: MMMD 230748Z 08007KT 7SM SKC 20/13 A3006
Conditions at: MMMD (MERIDA INTL ARPT, MX) observed 0748 UTC 23 March 2019
Temperature: 20.0°C (68°F)
Dewpoint: 13.0°C (55°F) [RH = 64%]
Pressure (altimeter): 30.06 inches Hg (1018.0 mb)
Winds: from the E (80 degrees) at 8 MPH (7 knots; 3.6 m/s)
Visibility: 7 miles (11 km)
Ceiling: at least 12,000 feet AGL
Clouds: clear skies
Weather: no significant weather observed at this time

METAR text: MMMD 230646Z 09010KT 7SM SKC 21/14 A3008
Conditions at: MMMD (MERIDA INTL ARPT, MX) observed 0646 UTC 23 March 2019
Temperature: 21.0°C (70°F)
Dewpoint: 14.0°C (57°F) [RH = 64%]
Pressure (altimeter): 30.08 inches Hg (1018.7 mb)
Winds: from the E (90 degrees) at 12 MPH (10 knots; 5.1 m/s)
Visibility: 7 miles (11 km)
Ceiling: at least 12,000 feet AGL
Clouds: clear skies
Weather: no significant weather observed at this time

METAR text: MMMD 230547Z 08008KT 7SM SKC 21/14 A3009 RMK SLP199 52016 904
Conditions at: MMMD (MERIDA INTL ARPT, MX) observed 0547 UTC 23 March 2019
Temperature: 21.0°C (70°F)
Dewpoint: 14.0°C (57°F) [RH = 64%]
Pressure (altimeter): 30.09 inches Hg (1019.0 mb)
[Sea-level pressure: 1019.9 mb]
Winds: from the E (80 degrees) at 9 MPH (8 knots; 4.1 m/s)
Visibility: 7 miles (11 km)
Ceiling: at least 12,000 feet AGL
Clouds: clear skies
Weather: no significant weather observed at this time

METAR text: MMMD 230448Z 09010KT 7SM SKC 22/14 A3010
Conditions at: MMMD (MERIDA INTL ARPT, MX) observed 0448 UTC 23 March 2019
Temperature: 22.0°C (72°F)
Dewpoint: 14.0°C (57°F) [RH = 60%]
Pressure (altimeter): 30.10 inches Hg (1019.4 mb)
Winds: from the E (90 degrees) at 12 MPH (10 knots; 5.1 m/s)
Visibility: 7 miles (11 km)
Ceiling: at least 12,000 feet AGL
Clouds: clear skies
Weather: no significant weather observed at this time

METAR text: MMMD 230347Z 06007KT 7SM SKC 22/15 A3011
Conditions at: MMMD (MERIDA INTL ARPT, MX) observed 0347 UTC 23 March 2019
Temperature: 22.0°C (72°F)
Dewpoint: 15.0°C (59°F) [RH = 65%]
Pressure (altimeter): 30.11 inches Hg (1019.7 mb)
Winds: from the ENE (60 degrees) at 8 MPH (7 knots; 3.6 m/s)
Visibility: 7 miles (11 km)
Ceiling: at least 12,000 feet AGL
Clouds: clear skies
Weather: no significant weather observed at this time

METAR text: MMMD 230246Z 04006KT 7SM SKC 23/15 A3010 RMK SLP183 52003 974
Conditions at: MMMD (MERIDA INTL ARPT, MX) observed 0246 UTC 23 March 2019
Temperature: 23.0°C (73°F)
Dewpoint: 15.0°C (59°F) [RH = 61%]
Pressure (altimeter): 30.10 inches Hg (1019.4 mb)
[Sea-level pressure: 1018.3 mb]
Winds: from the NE (40 degrees) at 7 MPH (6 knots; 3.1 m/s)
Visibility: 7 miles (11 km)
Ceiling: at least 12,000 feet AGL
Clouds: clear skies
Weather: no significant weather observed at this time

METAR text: MMMD 230146Z 04006KT 7SM SKC 23/14 A3008
Conditions at: MMMD (MERIDA INTL ARPT, MX) observed 0146 UTC 23 March 2019
Temperature: 23.0°C (73°F)
Dewpoint: 14.0°C (57°F) [RH = 57%]
Pressure (altimeter): 30.08 inches Hg (1018.7 mb)
Winds: from the NE (40 degrees) at 7 MPH (6 knots; 3.1 m/s)
Visibility: 7 miles (11 km)
Ceiling: at least 12,000 feet AGL
Clouds: clear skies
Weather: no significant weather observed at this time

METAR text: MMMD 230042Z 01004KT 7SM SKC 24/14 A3006
Conditions at: MMMD (MERIDA INTL ARPT, MX) observed 0042 UTC 23 March 2019
Temperature: 24.0°C (75°F)
Dewpoint: 14.0°C (57°F) [RH = 54%]
Pressure (altimeter): 30.06 inches Hg (1018.0 mb)
Winds: from the N (10 degrees) at 5 MPH (4 knots; 2.1 m/s)
Visibility: 7 miles (11 km)
Ceiling: at least 12,000 feet AGL
Clouds: clear skies
Weather: no significant weather observed at this time

METAR text: MMMD 222352Z 02003G16KT 7SM SKC 25/12 A3004 RMK SLP180 56006 952
Conditions at: MMMD (MERIDA INTL ARPT, MX) observed 2352 UTC 22 March 2019
Temperature: 25.0°C (77°F)
Dewpoint: 12.0°C (54°F) [RH = 44%]
Pressure (altimeter): 30.04 inches Hg (1017.4 mb)
[Sea-level pressure: 1018.0 mb]
Winds: from the NNE (20 degrees) at 3 MPH (3 knots; 1.5 m/s)
gusting to 18 MPH (16 knots; 8.2 m/s)
Visibility: 7 miles (11 km)
Ceiling: at least 12,000 feet AGL
Clouds: clear skies
Weather: no significant weather observed at this time

METAR text: MMMD 222251Z 03012KT 7SM SKC 27/13 A3003
Conditions at: MMMD (MERIDA INTL ARPT, MX) observed 2251 UTC 22 March 2019
Temperature: 27.0°C (81°F)
Dewpoint: 13.0°C (55°F) [RH = 42%]
Pressure (altimeter): 30.03 inches Hg (1017.0 mb)
Winds: from the NNE (30 degrees) at 14 MPH (12 knots; 6.2 m/s)
Visibility: 7 miles (11 km)
Ceiling: at least 12,000 feet AGL
Clouds: clear skies
Weather: no significant weather observed at this time

METAR text: MMMD 222143Z 02011KT 7SM FEW030 28/13 A3002 RMK 8/100
Conditions at: MMMD (MERIDA INTL ARPT, MX) observed 2143 UTC 22 March 2019
Temperature: 28.0°C (82°F)
Dewpoint: 13.0°C (55°F) [RH = 40%]
Pressure (altimeter): 30.02 inches Hg (1016.7 mb)
Winds: from the NNE (20 degrees) at 13 MPH (11 knots; 5.7 m/s)
Visibility: 7 miles (11 km)
Ceiling: at least 12,000 feet AGL
Clouds: few clouds at 3000 feet AGL
Weather: no significant weather observed at this time

METAR text: MMMD 222044Z 02011KT 7SM SCT030 29/14 A3003 RMK SLP186 56019 900 8/100
Conditions at: MMMD (MERIDA INTL ARPT, MX) observed 2044 UTC 22 March 2019
Temperature: 29.0°C (84°F)
Dewpoint: 14.0°C (57°F) [RH = 40%]
Pressure (altimeter): 30.03 inches Hg (1017.0 mb)
[Sea-level pressure: 1018.6 mb]
Winds: from the NNE (20 degrees) at 13 MPH (11 knots; 5.7 m/s)
Visibility: 7 miles (11 km)
Ceiling: at least 12,000 feet AGL
Clouds: scattered clouds at 3000 feet AGL
Weather: no significant weather observed at this time

METAR text: MMMD 221941Z 35010KT 7SM SCT030 30/14 A3005 RMK 8/100
Conditions at: MMMD (MERIDA INTL ARPT, MX) observed 1941 UTC 22 March 2019
Temperature: 30.0°C (86°F)
Dewpoint: 14.0°C (57°F) [RH = 38%]
Pressure (altimeter): 30.05 inches Hg (1017.7 mb)
Winds: from the N (350 degrees) at 12 MPH (10 knots; 5.1 m/s)
Visibility: 7 miles (11 km)
Ceiling: at least 12,000 feet AGL
Clouds: scattered clouds at 3000 feet AGL
Weather: no significant weather observed at this time

METAR text: MMMD 221841Z 36006KT 7SM SCT030 31/13 A3007 RMK 8/100
Conditions at: MMMD (MERIDA INTL ARPT, MX) observed 1841 UTC 22 March 2019
Temperature: 31.0°C (88°F)
Dewpoint: 13.0°C (55°F) [RH = 33%]
Pressure (altimeter): 30.07 inches Hg (1018.4 mb)
Winds: from the N (360 degrees) at 7 MPH (6 knots; 3.1 m/s)
Visibility: 7 miles (11 km)
Ceiling: at least 12,000 feet AGL
Clouds: scattered clouds at 3000 feet AGL
Weather: no significant weather observed at this time

METAR text: MMMD 221745Z 10008KT 7SM SCT030 29/12 A3011 RMK SLP205 56001 916 8/100
Conditions at: MMMD (MERIDA INTL ARPT, MX) observed 1745 UTC 22 March 2019
Temperature: 29.0°C (84°F)
Dewpoint: 12.0°C (54°F) [RH = 35%]
Pressure (altimeter): 30.11 inches Hg (1019.7 mb)
[Sea-level pressure: 1020.5 mb]
Winds: from the E (100 degrees) at 9 MPH (8 knots; 4.1 m/s)
Visibility: 7 miles (11 km)
Ceiling: at least 12,000 feet AGL
Clouds: scattered clouds at 3000 feet AGL
Weather: no significant weather observed at this time

METAR text: MMMD 221652Z 07005KT 7SM SCT025 28/14 A3013 RMK 8/100 HZY
Conditions at: MMMD (MERIDA INTL ARPT, MX) observed 1652 UTC 22 March 2019
Temperature: 28.0°C (82°F)
Dewpoint: 14.0°C (57°F) [RH = 42%]
Pressure (altimeter): 30.13 inches Hg (1020.4 mb)
Winds: from the ENE (70 degrees) at 6 MPH (5 knots; 2.6 m/s)
Visibility: 7 miles (11 km)
Ceiling: at least 12,000 feet AGL
Clouds: scattered clouds at 2500 feet AGL
Weather: no significant weather observed at this time

METAR text: MMMD 221546Z 35003KT 7SM BKN025 25/14 A3016 RMK 8/100 HZY
Conditions at: MMMD (MERIDA INTL ARPT, MX) observed 1546 UTC 22 March 2019
Temperature: 25.0°C (77°F)
Dewpoint: 14.0°C (57°F) [RH = 50%]
Pressure (altimeter): 30.16 inches Hg (1021.4 mb)
Winds: from the N (350 degrees) at 3 MPH (3 knots; 1.5 m/s)
Visibility: 7 miles (11 km)
Ceiling: 2500 feet AGL
Clouds: broken clouds at 2500 feet AGL
Weather: no significant weather observed at this time

METAR text: MMMD 221445Z 05007KT 7SM SCT020 24/14 A3016 RMK SLP207 52019 910 8/500 HZY
Conditions at: MMMD (MERIDA INTL ARPT, MX) observed 1445 UTC 22 March 2019
Temperature: 24.0°C (75°F)
Dewpoint: 14.0°C (57°F) [RH = 54%]
Pressure (altimeter): 30.16 inches Hg (1021.4 mb)
[Sea-level pressure: 1020.7 mb]
Winds: from the NE (50 degrees) at 8 MPH (7 knots; 3.6 m/s)
Visibility: 7 miles (11 km)
Ceiling: at least 12,000 feet AGL
Clouds: scattered clouds at 2000 feet AGL
Weather: no significant weather observed at this time

METAR text: MMMD 221347Z 19002KT 7SM SKC 21/14 A3015 RMK SC HZY
Conditions at: MMMD (MERIDA INTL ARPT, MX) observed 1347 UTC 22 March 2019
Temperature: 21.0°C (70°F)
Dewpoint: 14.0°C (57°F) [RH = 64%]
Pressure (altimeter): 30.15 inches Hg (1021.1 mb)
Winds: from the S (190 degrees) at 2 MPH (2 knots; 1.0 m/s)
Visibility: 7 miles (11 km)
Ceiling: at least 12,000 feet AGL
Clouds: clear skies
Weather: no significant weather observed at this time

METAR text: MMMD 221244Z 00000KT 7SM SKC 16/13 A3012 RMK SC HZY
Conditions at: MMMD (MERIDA INTL ARPT, MX) observed 1244 UTC 22 March 2019
Temperature: 16.0°C (61°F)
Dewpoint: 13.0°C (55°F) [RH = 82%]
Pressure (altimeter): 30.12 inches Hg (1020.1 mb)
Winds: calm
Visibility: 7 miles (11 km)
Ceiling: at least 12,000 feet AGL
Clouds: clear skies
Weather: no significant weather observed at this time

METAR text: MMMD 221144Z 16003KT 7SM SKC 16/13 A3011 RMK SLP189 57001 907 SC
Conditions at: MMMD (MERIDA INTL ARPT, MX) observed 1144 UTC 22 March 2019
Temperature: 16.0°C (61°F)
Dewpoint: 13.0°C (55°F) [RH = 82%]
Pressure (altimeter): 30.11 inches Hg (1019.7 mb)
[Sea-level pressure: 1018.9 mb]
Winds: from the SSE (160 degrees) at 3 MPH (3 knots; 1.5 m/s)
Visibility: 7 miles (11 km)
Ceiling: at least 12,000 feet AGL
Clouds: clear skies
Weather: no significant weather observed at this time

METAR text: MMMD 221047Z 00000KT 7SM SKC 16/13 A3009 RMK MSG TX MMMX
Conditions at: MMMD (MERIDA INTL ARPT, MX) observed 1047 UTC 22 March 2019
Temperature: 16.0°C (61°F)
Dewpoint: 13.0°C (55°F) [RH = 82%]
Pressure (altimeter): 30.09 inches Hg (1019.0 mb)
Winds: calm
Visibility: 7 miles (11 km)
Ceiling: at least 12,000 feet AGL
Clouds: clear skies
Weather: no significant weather observed at this time

Forecast for: MMMD (MERIDA INTL ARPT, MX)
Text: TAF MMMD 231651Z 2318/2424 07012KT P6SM SCT020 TX33/2320Z TN21/2410Z
Forecast period: 1800 UTC 23 March 2019 to 0400 UTC 24 March 2019
Forecast type: FROM: standard forecast or significant change
Winds: from the ENE (70 degrees) at 14 MPH (12 knots; 6.2 m/s)
Visibility: 6 or more miles 10+ km)
Ceiling: at least 12,000 feet AGL
Clouds: scattered clouds at 2000 feet AGL
Weather: no significant weather forecast for this period
Text: FM240400 08012KT P6SM SCT015
Forecast period: 0400 to 1500 UTC 24 March 2019
Forecast type: FROM: standard forecast or significant change
Winds: from the E (80 degrees) at 14 MPH (12 knots; 6.2 m/s)
Visibility: 6 or more miles 10+ km)
Ceiling: at least 12,000 feet AGL
Clouds: scattered clouds at 1500 feet AGL
Weather: no significant weather forecast for this period
Text: FM241500 09010KT P6SM SCT020
Forecast period: 1500 to 1700 UTC 24 March 2019
Forecast type: FROM: standard forecast or significant change
Winds: from the E (90 degrees) at 12 MPH (10 knots; 5.1 m/s)
Visibility: 6 or more miles 10+ km)
Ceiling: at least 12,000 feet AGL
Clouds: scattered clouds at 2000 feet AGL
Weather: no significant weather forecast for this period
Text: BECMG 2417/2418 05012KT
Forecast period: 1700 UTC 24 March 2019 to 0000 UTC 25 March 2019
Forecast type: BECOMING: Conditions expected to become as follows by 1800 UTC 24 March 2019
Winds: from the NE (50 degrees) at 14 MPH (12 knots; 6.2 m/s)
Visibility: 6 or more miles 10+ km)
Ceiling: at least 12,000 feet AGL
Clouds: scattered clouds at 2000 feet AGL
Weather: no significant weather forecast for this period